Nearby METAR Reports

 

KPSP - Palm Springs, California, USA
Distance from station: E 2mi, 4km
Updated: Wed, 12-Dec-2018 11:53pm PST
Clear
Clear
 Wind from NNW
Wind: NNW 10 mph , 17 km/h
Temperature: 57°F , 14°C
Dew Point: 36°F , 2°C
Humidity: 44%
Barometer: 30.21 inHg , 1023 hPa
Clouds: Clear
Visibility: 10 miles , 16 km
2018/12/13 07:53 KPSP 130753Z AUTO 33009KT 10SM CLR 14/02 A3021 RMK AO2 SLP229 T01390022 402280089
KTRM - Thermal/Palm Spg, California, USA
Distance from station: ESE 25mi, 40km
Updated: Wed, 12-Dec-2018 11:52pm PST
Clear
Clear
 Wind from calm
Wind: Calm
Temperature: 45°F , 7°C
Dew Point: 37°F , 3°C
Humidity: 76%
Barometer: 30.17 inHg , 1021.7 hPa
Clouds: Clear
Visibility: 8 miles , 13 km
2018/12/13 07:52 KTRM 130752Z AUTO 00000KT 8SM CLR 07/03 A3017 RMK AO2 SLP217 T00670033 402330039
 
KNXP - Twentynine Palms, California, USA
Distance from station: NNE 39mi, 62km
Updated: Wed, 12-Dec-2018 11:56pm PST
Clear
Clear
 Wind from WNW
Wind: WNW 6 mph , 9 km/h
Temperature: 46°F , 8°C
Wind Chill: 43°F , 6°C
Dew Point: 25°F , -4°C
Humidity: 43%
Barometer: 30.31 inHg , 1026.4 hPa
Clouds: Clear
Visibility: 10 miles , 16 km
2018/12/13 07:56 KNXP 130756Z AUTO 29005KT 10SM CLR 08/M04 A3031 RMK AO2 SLP246 T00831039 401890039
KL35 - Big Bear City, California, USA
Distance from station: NNW 36mi, 58km
Updated: Wed, 12-Dec-2018 11:55pm PST
Clear
Clear
 Wind from calm
Wind: Calm
Temperature: 25°F , -4°C
Dew Point: 12°F , -11°C
Humidity: 59%
Barometer: 30.33 inHg , 1027.1 hPa
Clouds: Clear
Visibility: 10 miles , 16 km
2018/12/13 07:55 KL35 130755Z AUTO 00000KT 10SM CLR M04/M11 A3033 RMK AO2
 
KRIV - Riverside/March, California, USA
Distance from station: W 42mi, 67km
Updated: Wed, 12-Dec-2018 11:58pm PST
Mist, Clear
Mist, Clear
 Wind from calm
Wind: Calm
Temperature: 43°F , 6°C
Dew Point: 43°F , 6°C
Humidity: 100%
Barometer: 30.20 inHg , 1022.7 hPa
Summary: Mist
Clouds: Clear
Visibility: 5 miles , 8 km
2018/12/13 07:58 KRIV 130758Z AUTO 00000KT 5SM BR CLR 06/06 A3020 RMK AO2 SLP226 T00630063 401860027
KF70 - Murrieta/Temecul, California, USA
Distance from station: WSW 38mi, 62km
Updated: Wed, 12-Dec-2018 11:55pm PST
Clear
Clear
 Wind from NNE
Wind: NNE 5 mph , 7 km/h
Temperature: 45°F , 7°C
Wind Chill: 42°F , 6°C
Dew Point: 45°F , 7°C
Humidity: 100%
Barometer: 30.20 inHg , 1022.7 hPa
Clouds: Clear
Visibility: 5 miles , 8 km
2018/12/13 07:55 KF70 130755Z AUTO 02004KT 5SM CLR 07/07 A3020 RMK AO1
 
KONT - Ontario, California, USA
Distance from station: WNW 62mi, 100km
Updated: Wed, 12-Dec-2018 11:53pm PST
Mist, Partly cloudy
Mist, Partly cloudy
 Wind from varies
Wind: varies 3 mph , 6 km/h
Temperature: 50°F , 10°C
Dew Point: 46°F , 8°C
Humidity: 88%
Barometer: 30.20 inHg , 1022.7 hPa
Summary: Mist
Clouds: Partly cloudy
Visibility: 5 miles , 8 km
Cloud details: Few Clouds 0 ft
Partly cloudy 25000 ft
2018/12/13 07:53 KONT 130753Z VRB03KT 5SM BR FEW000 SCT250 10/08 A3020 RMK AO2 SLP223 BR FEW000 T01000083 401890067
KSBD - San Bernardino, California, USA
Distance from station: WNW 45mi, 72km
Updated: Thu, 13-Dec-2018 12:00am PST
Haze, Clear
Haze, Clear
 Wind from calm
Wind: Calm
Temperature: 50°F , 10°C
Dew Point: 39°F , 4°C
Humidity: 67%
Barometer: 30.21 inHg , 1023 hPa
Summary: Haze
Clouds: Clear
Visibility: 5 miles , 8 km
2018/12/13 08:00 KSBD 130800Z AUTO 00000KT 5SM HZ CLR 10/04 A3021 RMK AO2 T00960040